sensor_id;sensor_type;location;lat;lon;timestamp;pressure;altitude;pressure_sealevel;temperature;humidity
79144;BME280;68551;47.484;19.092;2023-06-14T00:01:18;100137.03;;;15.35;66.51
79144;BME280;68551;47.484;19.092;2023-06-14T00:04:23;100135.56;;;15.22;66.81
79144;BME280;68551;47.484;19.092;2023-06-14T00:07:37;100132.88;;;15.27;66.37
79144;BME280;68551;47.484;19.092;2023-06-14T00:10:50;100140.31;;;15.00;68.09
79144;BME280;68551;47.484;19.092;2023-06-14T00:13:55;100139.25;;;15.06;67.89
79144;BME280;68551;47.484;19.092;2023-06-14T00:16:58;100147.38;;;14.96;68.41
79144;BME280;68551;47.484;19.092;2023-06-14T00:20:03;100145.66;;;14.89;68.82
79144;BME280;68551;47.484;19.092;2023-06-14T00:23:07;100141.84;;;14.90;68.64
79144;BME280;68551;47.484;19.092;2023-06-14T00:26:15;100141.91;;;14.96;68.28
79144;BME280;68551;47.484;19.092;2023-06-14T00:29:18;100146.25;;;14.92;69.33
79144;BME280;68551;47.484;19.092;2023-06-14T00:32:23;100146.88;;;14.99;68.89
79144;BME280;68551;47.484;19.092;2023-06-14T00:35:30;100151.16;;;14.89;69.02
79144;BME280;68551;47.484;19.092;2023-06-14T00:38:33;100147.38;;;14.96;68.97
79144;BME280;68551;47.484;19.092;2023-06-14T00:41:37;100152.22;;;14.88;69.47
79144;BME280;68551;47.484;19.092;2023-06-14T00:44:40;100148.31;;;14.79;69.90
79144;BME280;68551;47.484;19.092;2023-06-14T00:47:43;100134.53;;;14.74;69.21
79144;BME280;68551;47.484;19.092;2023-06-14T00:50:46;100143.41;;;14.81;69.61
79144;BME280;68551;47.484;19.092;2023-06-14T00:53:53;100150.94;;;14.69;70.02
79144;BME280;68551;47.484;19.092;2023-06-14T00:56:55;100159.16;;;14.69;70.59
79144;BME280;68551;47.484;19.092;2023-06-14T00:59:57;100161.25;;;14.62;70.52
79144;BME280;68551;47.484;19.092;2023-06-14T01:03:01;100147.16;;;14.75;70.41
79144;BME280;68551;47.484;19.092;2023-06-14T01:15:59;100130.34;;;14.67;70.18
79144;BME280;68551;47.484;19.092;2023-06-14T01:19:02;100151.09;;;14.58;71.37
79144;BME280;68551;47.484;19.092;2023-06-14T01:22:07;100149.59;;;14.50;71.88
79144;BME280;68551;47.484;19.092;2023-06-14T01:25:12;100138.63;;;14.50;71.76
79144;BME280;68551;47.484;19.092;2023-06-14T01:28:15;100142.59;;;14.59;71.89
79144;BME280;68551;47.484;19.092;2023-06-14T01:31:20;100142.59;;;14.59;71.35
79144;BME280;68551;47.484;19.092;2023-06-14T01:34:26;100137.63;;;14.56;71.84
79144;BME280;68551;47.484;19.092;2023-06-14T01:37:35;100145.28;;;14.54;71.47
79144;BME280;68551;47.484;19.092;2023-06-14T01:40:44;100142.97;;;14.46;71.99
79144;BME280;68551;47.484;19.092;2023-06-14T01:43:47;100148.78;;;14.49;72.41
79144;BME280;68551;47.484;19.092;2023-06-14T01:46:51;100150.75;;;14.54;71.95
79144;BME280;68551;47.484;19.092;2023-06-14T01:49:57;100152.81;;;14.42;72.86
79144;BME280;68551;47.484;19.092;2023-06-14T01:52:59;100153.44;;;14.49;72.43
79144;BME280;68551;47.484;19.092;2023-06-14T01:56:06;100165.22;;;14.49;72.24
79144;BME280;68551;47.484;19.092;2023-06-14T01:59:11;100162.13;;;14.41;72.94
79144;BME280;68551;47.484;19.092;2023-06-14T02:02:14;100166.34;;;14.32;73.64
79144;BME280;68551;47.484;19.092;2023-06-14T02:05:17;100150.34;;;14.24;73.56
79144;BME280;68551;47.484;19.092;2023-06-14T02:08:23;100166.91;;;14.34;73.57
79144;BME280;68551;47.484;19.092;2023-06-14T02:11:27;100169.97;;;14.37;73.06
79144;BME280;68551;47.484;19.092;2023-06-14T02:14:29;100169.72;;;14.39;73.09
79144;BME280;68551;47.484;19.092;2023-06-14T02:17:31;100167.00;;;14.39;72.83
79144;BME280;68551;47.484;19.092;2023-06-14T02:20:34;100165.19;;;14.28;73.41
79144;BME280;68551;47.484;19.092;2023-06-14T02:23:38;100161.75;;;14.37;73.39
79144;BME280;68551;47.484;19.092;2023-06-14T02:26:41;100167.94;;;14.44;73.13
79144;BME280;68551;47.484;19.092;2023-06-14T02:29:47;100158.09;;;14.32;73.37
79144;BME280;68551;47.484;19.092;2023-06-14T02:32:55;100161.31;;;14.24;73.58
79144;BME280;68551;47.484;19.092;2023-06-14T02:35:57;100168.28;;;14.31;73.29
79144;BME280;68551;47.484;19.092;2023-06-14T02:39:01;100161.06;;;14.25;73.54
79144;BME280;68551;47.484;19.092;2023-06-14T02:42:05;100160.94;;;14.37;73.33
79144;BME280;68551;47.484;19.092;2023-06-14T02:45:08;100163.09;;;14.35;73.60
79144;BME280;68551;47.484;19.092;2023-06-14T02:48:13;100150.47;;;14.34;73.64
79144;BME280;68551;47.484;19.092;2023-06-14T02:51:20;100155.91;;;14.29;73.29
79144;BME280;68551;47.484;19.092;2023-06-14T02:54:28;100161.44;;;14.34;73.83
79144;BME280;68551;47.484;19.092;2023-06-14T02:57:31;100146.66;;;14.35;73.13
79144;BME280;68551;47.484;19.092;2023-06-14T03:00:33;100154.28;;;14.33;73.55
79144;BME280;68551;47.484;19.092;2023-06-14T03:03:42;100156.97;;;14.28;73.84
79144;BME280;68551;47.484;19.092;2023-06-14T03:06:44;100161.88;;;14.26;73.58
79144;BME280;68551;47.484;19.092;2023-06-14T03:09:57;100140.75;;;14.04;73.94
79144;BME280;68551;47.484;19.092;2023-06-14T03:13:02;100160.16;;;14.19;73.71
79144;BME280;68551;47.484;19.092;2023-06-14T03:16:05;100160.22;;;14.25;73.50
79144;BME280;68551;47.484;19.092;2023-06-14T03:19:13;100159.13;;;14.26;73.67
79144;BME280;68551;47.484;19.092;2023-06-14T03:22:17;100155.81;;;14.24;74.05
79144;BME280;68551;47.484;19.092;2023-06-14T03:25:19;100158.94;;;14.32;74.01
79144;BME280;68551;47.484;19.092;2023-06-14T03:28:25;100155.91;;;14.29;74.15
79144;BME280;68551;47.484;19.092;2023-06-14T03:31:31;100153.22;;;14.34;73.46
79144;BME280;68551;47.484;19.092;2023-06-14T03:34:36;100170.56;;;14.39;73.62
79144;BME280;68551;47.484;19.092;2023-06-14T03:37:46;100164.84;;;14.41;73.06
79144;BME280;68551;47.484;19.092;2023-06-14T03:40:49;100162.44;;;14.44;73.04
79144;BME280;68551;47.484;19.092;2023-06-14T03:43:59;100168.19;;;14.43;73.23
79144;BME280;68551;47.484;19.092;2023-06-14T03:47:01;100159.41;;;14.46;72.81
79144;BME280;68551;47.484;19.092;2023-06-14T03:50:06;100166.19;;;14.60;72.61
79144;BME280;68551;47.484;19.092;2023-06-14T03:53:12;100171.81;;;14.70;72.07
79144;BME280;68551;47.484;19.092;2023-06-14T03:56:21;100170.06;;;14.64;71.50
79144;BME280;68551;47.484;19.092;2023-06-14T03:59:29;100169.00;;;14.65;70.82
79144;BME280;68551;47.484;19.092;2023-06-14T04:02:31;100175.41;;;14.76;71.15
79144;BME280;68551;47.484;19.092;2023-06-14T04:05:34;100146.44;;;14.58;71.85
79144;BME280;68551;47.484;19.092;2023-06-14T04:08:40;100173.88;;;14.85;71.18
79144;BME280;68551;47.484;19.092;2023-06-14T04:11:43;100175.81;;;14.84;70.44
79144;BME280;68551;47.484;19.092;2023-06-14T04:14:46;100182.53;;;14.99;70.13
79144;BME280;68551;47.484;19.092;2023-06-14T04:17:48;100180.41;;;15.06;70.00
79144;BME280;68551;47.484;19.092;2023-06-14T04:20:51;100184.41;;;15.20;69.55
79144;BME280;68551;47.484;19.092;2023-06-14T04:23:53;100188.34;;;15.29;68.89
79144;BME280;68551;47.484;19.092;2023-06-14T04:27:00;100189.91;;;15.52;68.19
79144;BME280;68551;47.484;19.092;2023-06-14T04:30:05;100182.09;;;15.66;67.93
79144;BME280;68551;47.484;19.092;2023-06-14T04:33:12;100189.94;;;15.84;67.45
79144;BME280;68551;47.484;19.092;2023-06-14T04:36:14;100209.28;;;15.99;66.74
79144;BME280;68551;47.484;19.092;2023-06-14T04:39:24;100184.63;;;16.09;66.05
79144;BME280;68551;47.484;19.092;2023-06-14T04:42:28;100162.69;;;16.19;65.58
79144;BME280;68551;47.484;19.092;2023-06-14T04:45:35;100195.56;;;16.51;64.96
79144;BME280;68551;47.484;19.092;2023-06-14T04:48:45;100194.22;;;16.59;63.96
79144;BME280;68551;47.484;19.092;2023-06-14T04:51:53;100195.44;;;16.78;63.74
79144;BME280;68551;47.484;19.092;2023-06-14T04:55:15;100199.59;;;16.86;63.57
79144;BME280;68551;47.484;19.092;2023-06-14T04:58:23;100205.19;;;17.16;62.29
79144;BME280;68551;47.484;19.092;2023-06-14T05:01:30;100210.94;;;17.05;63.14
79144;BME280;68551;47.484;19.092;2023-06-14T05:04:36;100212.41;;;17.38;62.31
79144;BME280;68551;47.484;19.092;2023-06-14T05:07:42;100211.53;;;17.27;62.12
79144;BME280;68551;47.484;19.092;2023-06-14T05:10:44;100204.41;;;17.51;60.91
79144;BME280;68551;47.484;19.092;2023-06-14T05:13:46;100198.09;;;17.71;60.88
79144;BME280;68551;47.484;19.092;2023-06-14T05:16:49;100198.41;;;17.80;60.42
79144;BME280;68551;47.484;19.092;2023-06-14T05:19:54;100196.97;;;17.52;61.12
79144;BME280;68551;47.484;19.092;2023-06-14T05:22:58;100197.81;;;17.62;61.38
79144;BME280;68551;47.484;19.092;2023-06-14T05:26:00;100205.50;;;18.11;59.73
79144;BME280;68551;47.484;19.092;2023-06-14T05:29:07;100200.06;;;17.81;59.75
79144;BME280;68551;47.484;19.092;2023-06-14T05:32:09;100205.25;;;17.97;59.09
79144;BME280;68551;47.484;19.092;2023-06-14T05:35:15;100198.94;;;17.87;60.17
79144;BME280;68551;47.484;19.092;2023-06-14T05:38:21;100207.13;;;18.27;59.53
79144;BME280;68551;47.484;19.092;2023-06-14T05:41:27;100211.00;;;17.55;60.74
79144;BME280;68551;47.484;19.092;2023-06-14T05:44:29;100209.38;;;17.59;61.25
79144;BME280;68551;47.484;19.092;2023-06-14T05:47:35;100207.97;;;18.28;59.62
79144;BME280;68551;47.484;19.092;2023-06-14T05:50:37;100204.41;;;18.22;59.15
79144;BME280;68551;47.484;19.092;2023-06-14T05:53:42;100207.28;;;18.76;58.70
79144;BME280;68551;47.484;19.092;2023-06-14T05:56:44;100198.44;;;19.34;56.14
79144;BME280;68551;47.484;19.092;2023-06-14T05:59:47;100205.06;;;19.72;55.39
79144;BME280;68551;47.484;19.092;2023-06-14T06:02:49;100196.56;;;20.50;53.96
79144;BME280;68551;47.484;19.092;2023-06-14T06:05:54;100210.28;;;20.36;52.92
79144;BME280;68551;47.484;19.092;2023-06-14T06:08:56;100205.47;;;20.71;52.37
79144;BME280;68551;47.484;19.092;2023-06-14T06:12:06;100205.28;;;20.38;52.80
79144;BME280;68551;47.484;19.092;2023-06-14T06:15:14;100204.69;;;20.65;51.93
79144;BME280;68551;47.484;19.092;2023-06-14T06:18:17;100197.50;;;21.31;51.25
79144;BME280;68551;47.484;19.092;2023-06-14T06:21:21;100191.47;;;21.93;49.44
79144;BME280;68551;47.484;19.092;2023-06-14T06:24:26;100199.03;;;21.74;49.03
79144;BME280;68551;47.484;19.092;2023-06-14T06:27:32;100209.94;;;21.84;49.56
79144;BME280;68551;47.484;19.092;2023-06-14T06:30:38;100206.69;;;22.28;48.03
79144;BME280;68551;47.484;19.092;2023-06-14T06:33:43;100203.34;;;23.00;47.30
79144;BME280;68551;47.484;19.092;2023-06-14T06:36:45;100205.91;;;22.69;46.53
79144;BME280;68551;47.484;19.092;2023-06-14T06:39:50;100196.59;;;22.46;47.40
79144;BME280;68551;47.484;19.092;2023-06-14T06:42:52;100198.91;;;22.99;46.17
79144;BME280;68551;47.484;19.092;2023-06-14T06:45:55;100195.06;;;23.45;44.81
79144;BME280;68551;47.484;19.092;2023-06-14T06:49:03;100196.06;;;23.62;45.03
79144;BME280;68551;47.484;19.092;2023-06-14T06:52:08;100201.06;;;21.69;48.59
79144;BME280;68551;47.484;19.092;2023-06-14T06:55:15;100202.28;;;21.76;48.41
79144;BME280;68551;47.484;19.092;2023-06-14T06:58:18;100206.81;;;21.72;48.16
79144;BME280;68551;47.484;19.092;2023-06-14T07:01:21;100215.88;;;21.78;48.61
79144;BME280;68551;47.484;19.092;2023-06-14T07:04:23;100207.25;;;21.79;48.15
79144;BME280;68551;47.484;19.092;2023-06-14T07:07:27;100208.47;;;21.73;49.00
79144;BME280;68551;47.484;19.092;2023-06-14T07:10:30;100198.78;;;21.89;48.28
79144;BME280;68551;47.484;19.092;2023-06-14T07:13:35;100202.88;;;21.92;48.28
79144;BME280;68551;47.484;19.092;2023-06-14T07:16:42;100195.03;;;22.13;48.49
79144;BME280;68551;47.484;19.092;2023-06-14T07:19:45;100198.22;;;22.20;48.38
79144;BME280;68551;47.484;19.092;2023-06-14T07:22:50;100200.84;;;22.71;47.39
79144;BME280;68551;47.484;19.092;2023-06-14T07:25:54;100177.97;;;23.15;46.09
79144;BME280;68551;47.484;19.092;2023-06-14T07:28:57;100202.16;;;23.15;46.27
79144;BME280;68551;47.484;19.092;2023-06-14T07:31:59;100203.94;;;22.97;46.69
79144;BME280;68551;47.484;19.092;2023-06-14T07:35:04;100203.31;;;22.73;47.82
79144;BME280;68551;47.484;19.092;2023-06-14T07:38:09;100205.38;;;22.53;47.66
79144;BME280;68551;47.484;19.092;2023-06-14T07:41:14;100210.28;;;22.29;47.44
79144;BME280;68551;47.484;19.092;2023-06-14T07:44:16;100201.00;;;22.20;47.23
79144;BME280;68551;47.484;19.092;2023-06-14T07:47:18;100206.75;;;22.10;47.31
79144;BME280;68551;47.484;19.092;2023-06-14T07:50:22;100206.97;;;22.13;47.54
79144;BME280;68551;47.484;19.092;2023-06-14T07:53:25;100212.91;;;22.07;47.37
79144;BME280;68551;47.484;19.092;2023-06-14T07:56:32;100220.50;;;22.01;47.43
79144;BME280;68551;47.484;19.092;2023-06-14T07:59:35;100228.44;;;22.08;47.34
79144;BME280;68551;47.484;19.092;2023-06-14T08:02:44;100214.34;;;22.04;47.14
79144;BME280;68551;47.484;19.092;2023-06-14T08:05:46;100214.88;;;22.20;46.56
79144;BME280;68551;47.484;19.092;2023-06-14T08:08:49;100218.34;;;22.44;47.69
79144;BME280;68551;47.484;19.092;2023-06-14T08:11:53;100222.78;;;23.00;46.26
79144;BME280;68551;47.484;19.092;2023-06-14T08:14:56;100208.69;;;23.91;43.62
79144;BME280;68551;47.484;19.092;2023-06-14T08:18:15;100208.03;;;25.78;40.66
79144;BME280;68551;47.484;19.092;2023-06-14T08:21:17;100215.56;;;25.69;39.34
79144;BME280;68551;47.484;19.092;2023-06-14T08:24:21;100207.66;;;25.19;39.81
79144;BME280;68551;47.484;19.092;2023-06-14T08:27:29;100220.41;;;25.03;42.03
79144;BME280;68551;47.484;19.092;2023-06-14T08:30:37;100218.22;;;24.21;41.75
79144;BME280;68551;47.484;19.092;2023-06-14T08:33:41;100219.25;;;24.02;43.05
79144;BME280;68551;47.484;19.092;2023-06-14T08:36:45;100221.53;;;24.00;42.71
79144;BME280;68551;47.484;19.092;2023-06-14T08:39:50;100223.31;;;23.96;42.98
79144;BME280;68551;47.484;19.092;2023-06-14T08:42:53;100232.84;;;24.04;42.35
79144;BME280;68551;47.484;19.092;2023-06-14T08:46:03;100223.56;;;23.86;43.14
79144;BME280;68551;47.484;19.092;2023-06-14T08:49:13;100238.50;;;23.68;43.20
79144;BME280;68551;47.484;19.092;2023-06-14T08:52:23;100241.53;;;23.58;43.70
79144;BME280;68551;47.484;19.092;2023-06-14T08:55:29;100247.91;;;23.45;43.30
79144;BME280;68551;47.484;19.092;2023-06-14T08:58:44;100244.22;;;23.36;42.43
79144;BME280;68551;47.484;19.092;2023-06-14T09:01:50;100255.16;;;23.18;42.23
79144;BME280;68551;47.484;19.092;2023-06-14T09:05:15;100256.63;;;23.16;43.07
79144;BME280;68551;47.484;19.092;2023-06-14T09:08:22;100254.78;;;23.11;44.12
79144;BME280;68551;47.484;19.092;2023-06-14T09:11:30;100241.41;;;23.00;43.98
79144;BME280;68551;47.484;19.092;2023-06-14T09:14:35;100255.13;;;23.32;43.94
79144;BME280;68551;47.484;19.092;2023-06-14T09:17:40;100260.59;;;23.51;43.33
79144;BME280;68551;47.484;19.092;2023-06-14T09:20:46;100246.28;;;23.57;42.30
79144;BME280;68551;47.484;19.092;2023-06-14T09:23:49;100259.63;;;23.69;41.95
79144;BME280;68551;47.484;19.092;2023-06-14T09:26:54;100246.72;;;23.73;41.94
79144;BME280;68551;47.484;19.092;2023-06-14T09:29:57;100253.38;;;23.86;43.00
79144;BME280;68551;47.484;19.092;2023-06-14T09:33:02;100247.88;;;23.72;43.26
79144;BME280;68551;47.484;19.092;2023-06-14T09:36:11;100234.69;;;23.64;43.09
79144;BME280;68551;47.484;19.092;2023-06-14T09:39:17;100238.41;;;23.46;43.50
79144;BME280;68551;47.484;19.092;2023-06-14T09:42:23;100234.50;;;23.47;42.75
79144;BME280;68551;47.484;19.092;2023-06-14T09:45:27;100236.41;;;23.38;43.21
79144;BME280;68551;47.484;19.092;2023-06-14T09:48:34;100220.94;;;23.31;42.73
79144;BME280;68551;47.484;19.092;2023-06-14T09:51:43;100222.56;;;23.82;42.45
79144;BME280;68551;47.484;19.092;2023-06-14T09:54:47;100230.34;;;24.47;42.30
79144;BME280;68551;47.484;19.092;2023-06-14T09:57:55;100224.69;;;24.61;38.68
79144;BME280;68551;47.484;19.092;2023-06-14T10:00:59;100227.66;;;24.73;39.28
79144;BME280;68551;47.484;19.092;2023-06-14T10:04:05;100201.34;;;24.48;37.57
79144;BME280;68551;47.484;19.092;2023-06-14T10:07:20;100222.78;;;24.79;35.21
79144;BME280;68551;47.484;19.092;2023-06-14T10:10:25;100232.56;;;25.07;34.28
79144;BME280;68551;47.484;19.092;2023-06-14T10:13:32;100235.72;;;25.23;33.96
79144;BME280;68551;47.484;19.092;2023-06-14T10:19:58;100213.44;;;25.49;32.93
79144;BME280;68551;47.484;19.092;2023-06-14T10:23:09;100222.78;;;25.53;34.41
79144;BME280;68551;47.484;19.092;2023-06-14T10:26:23;100223.09;;;25.42;34.52
79144;BME280;68551;47.484;19.092;2023-06-14T10:29:26;100214.56;;;25.30;34.13
79144;BME280;68551;47.484;19.092;2023-06-14T10:32:32;100202.75;;;25.33;35.40
79144;BME280;68551;47.484;19.092;2023-06-14T10:35:34;100214.72;;;25.25;35.00
79144;BME280;68551;47.484;19.092;2023-06-14T10:38:41;100207.28;;;24.95;36.08
79144;BME280;68551;47.484;19.092;2023-06-14T10:41:56;100204.91;;;24.80;37.09
79144;BME280;68551;47.484;19.092;2023-06-14T10:45:01;100200.28;;;24.66;37.50
79144;BME280;68551;47.484;19.092;2023-06-14T10:48:06;100199.66;;;24.69;36.86
79144;BME280;68551;47.484;19.092;2023-06-14T10:51:37;100195.72;;;24.09;37.14
79144;BME280;68551;47.484;19.092;2023-06-14T10:54:59;100198.22;;;24.41;37.10
79144;BME280;68551;47.484;19.092;2023-06-14T10:58:06;100206.78;;;24.53;37.01
79144;BME280;68551;47.484;19.092;2023-06-14T11:01:12;100189.38;;;24.39;36.28
79144;BME280;68551;47.484;19.092;2023-06-14T11:04:21;100188.81;;;24.06;36.42
79144;BME280;68551;47.484;19.092;2023-06-14T11:11:10;100193.47;;;24.19;35.34
79144;BME280;68551;47.484;19.092;2023-06-14T11:14:14;100186.25;;;23.87;35.76
79144;BME280;68551;47.484;19.092;2023-06-14T11:17:20;100176.06;;;23.60;35.97
79144;BME280;68551;47.484;19.092;2023-06-14T11:20:24;100184.56;;;23.78;36.15
79144;BME280;68551;47.484;19.092;2023-06-14T11:23:29;100179.06;;;23.64;35.65
79144;BME280;68551;47.484;19.092;2023-06-14T11:26:32;100173.97;;;23.44;36.04
79144;BME280;68551;47.484;19.092;2023-06-14T11:29:47;100169.84;;;23.41;35.57
79144;BME280;68551;47.484;19.092;2023-06-14T11:32:51;100169.31;;;23.75;36.62
79144;BME280;68551;47.484;19.092;2023-06-14T11:36:01;100169.84;;;24.08;35.56
79144;BME280;68551;47.484;19.092;2023-06-14T11:39:05;100176.22;;;24.31;34.60
79144;BME280;68551;47.484;19.092;2023-06-14T11:42:17;100169.19;;;24.33;34.45
79144;BME280;68551;47.484;19.092;2023-06-14T11:45:20;100174.94;;;24.37;34.27
79144;BME280;68551;47.484;19.092;2023-06-14T11:48:35;100166.53;;;24.28;33.19
79144;BME280;68551;47.484;19.092;2023-06-14T11:51:42;100180.59;;;24.23;34.35
79144;BME280;68551;47.484;19.092;2023-06-14T11:54:47;100157.09;;;24.16;34.07
79144;BME280;68551;47.484;19.092;2023-06-14T11:57:50;100172.75;;;24.25;35.02
79144;BME280;68551;47.484;19.092;2023-06-14T12:00:53;100179.97;;;24.26;34.76
79144;BME280;68551;47.484;19.092;2023-06-14T12:03:59;100163.25;;;24.04;35.04
79144;BME280;68551;47.484;19.092;2023-06-14T12:07:11;100186.59;;;24.17;34.16
79144;BME280;68551;47.484;19.092;2023-06-14T12:10:17;100179.38;;;24.16;34.79
79144;BME280;68551;47.484;19.092;2023-06-14T12:13:19;100189.25;;;24.22;35.23
79144;BME280;68551;47.484;19.092;2023-06-14T12:16:29;100181.28;;;24.07;36.13
79144;BME280;68551;47.484;19.092;2023-06-14T12:19:32;100172.81;;;24.12;36.29
79144;BME280;68551;47.484;19.092;2023-06-14T12:22:38;100164.41;;;24.03;38.12
79144;BME280;68551;47.484;19.092;2023-06-14T12:25:45;100160.56;;;23.90;37.97
79144;BME280;68551;47.484;19.092;2023-06-14T12:28:48;100166.75;;;23.87;37.79
79144;BME280;68551;47.484;19.092;2023-06-14T12:31:53;100175.63;;;23.89;38.11
79144;BME280;68551;47.484;19.092;2023-06-14T12:35:01;100177.41;;;23.85;38.69
79144;BME280;68551;47.484;19.092;2023-06-14T12:38:06;100179.41;;;23.93;38.50
79144;BME280;68551;47.484;19.092;2023-06-14T12:41:11;100178.47;;;23.98;39.34
79144;BME280;68551;47.484;19.092;2023-06-14T12:44:13;100182.94;;;24.08;38.19
79144;BME280;68551;47.484;19.092;2023-06-14T12:47:16;100175.91;;;24.10;36.76
79144;BME280;68551;47.484;19.092;2023-06-14T12:50:21;100175.22;;;24.27;38.21
79144;BME280;68551;47.484;19.092;2023-06-14T12:53:30;100177.81;;;24.01;37.47
79144;BME280;68551;47.484;19.092;2023-06-14T12:56:33;100177.81;;;24.01;37.90
79144;BME280;68551;47.484;19.092;2023-06-14T12:59:35;100168.44;;;24.19;38.13
79144;BME280;68551;47.484;19.092;2023-06-14T13:02:40;100168.94;;;24.21;38.13
79144;BME280;68551;47.484;19.092;2023-06-14T13:05:45;100170.69;;;24.17;37.40
79144;BME280;68551;47.484;19.092;2023-06-14T13:08:50;100172.91;;;23.98;36.99
79144;BME280;68551;47.484;19.092;2023-06-14T13:11:55;100167.50;;;24.01;37.90
79144;BME280;68551;47.484;19.092;2023-06-14T13:14:57;100171.69;;;24.13;37.40
79144;BME280;68551;47.484;19.092;2023-06-14T13:17:59;100161.13;;;24.01;37.74
79144;BME280;68551;47.484;19.092;2023-06-14T13:21:02;100174.63;;;24.16;37.22
79144;BME280;68551;47.484;19.092;2023-06-14T13:24:07;100159.66;;;24.26;37.89
79144;BME280;68551;47.484;19.092;2023-06-14T13:27:09;100162.44;;;24.26;37.70
79144;BME280;68551;47.484;19.092;2023-06-14T13:30:13;100168.00;;;24.26;37.11
79144;BME280;68551;47.484;19.092;2023-06-14T13:33:18;100164.63;;;24.37;36.04
79144;BME280;68551;47.484;19.092;2023-06-14T13:36:23;100160.22;;;24.45;36.92
79144;BME280;68551;47.484;19.092;2023-06-14T13:39:26;100164.31;;;24.48;36.83
79144;BME280;68551;47.484;19.092;2023-06-14T13:42:28;100164.19;;;24.53;36.08
79144;BME280;68551;47.484;19.092;2023-06-14T13:45:33;100161.59;;;24.56;36.12
79144;BME280;68551;47.484;19.092;2023-06-14T13:48:35;100149.94;;;24.54;36.19
79144;BME280;68551;47.484;19.092;2023-06-14T13:51:40;100152.84;;;24.49;36.48
79144;BME280;68551;47.484;19.092;2023-06-14T13:54:45;100142.22;;;24.51;36.05
79144;BME280;68551;47.484;19.092;2023-06-14T13:57:50;100150.38;;;24.39;36.16
79144;BME280;68551;47.484;19.092;2023-06-14T14:00:55;100143.94;;;24.30;36.48
79144;BME280;68551;47.484;19.092;2023-06-14T14:03:58;100147.78;;;24.20;36.56
79144;BME280;68551;47.484;19.092;2023-06-14T14:07:04;100155.09;;;24.08;36.87
79144;BME280;68551;47.484;19.092;2023-06-14T14:10:08;100152.44;;;24.02;37.15
79144;BME280;68551;47.484;19.092;2023-06-14T14:13:13;100153.16;;;24.08;36.27
79144;BME280;68551;47.484;19.092;2023-06-14T14:16:15;100141.81;;;24.04;36.31
79144;BME280;68551;47.484;19.092;2023-06-14T14:19:18;100146.53;;;23.95;36.66
79144;BME280;68551;47.484;19.092;2023-06-14T14:22:26;100150.88;;;23.88;36.50
79144;BME280;68551;47.484;19.092;2023-06-14T14:25:31;100152.53;;;23.89;36.64
79144;BME280;68551;47.484;19.092;2023-06-14T14:28:33;100146.53;;;23.95;36.15
79144;BME280;68551;47.484;19.092;2023-06-14T14:31:35;100149.81;;;23.97;35.55
79144;BME280;68551;47.484;19.092;2023-06-14T14:34:42;100152.28;;;23.99;35.11
79144;BME280;68551;47.484;19.092;2023-06-14T14:37:47;100149.09;;;23.83;35.39
79144;BME280;68551;47.484;19.092;2023-06-14T14:40:49;100149.25;;;23.87;35.61
79144;BME280;68551;47.484;19.092;2023-06-14T14:43:56;100158.28;;;23.92;35.98
79144;BME280;68551;47.484;19.092;2023-06-14T14:47:03;100148.31;;;23.91;36.12
79144;BME280;68551;47.484;19.092;2023-06-14T14:50:08;100147.16;;;23.92;36.05
79144;BME280;68551;47.484;19.092;2023-06-14T14:53:19;100150.81;;;24.01;36.02
79144;BME280;68551;47.484;19.092;2023-06-14T14:56:24;100155.63;;;24.10;35.94
79144;BME280;68551;47.484;19.092;2023-06-14T14:59:27;100150.91;;;24.19;36.36
79144;BME280;68551;47.484;19.092;2023-06-14T15:02:34;100154.47;;;24.11;35.39
79144;BME280;68551;47.484;19.092;2023-06-14T15:05:36;100150.81;;;24.01;36.38
79144;BME280;68551;47.484;19.092;2023-06-14T15:08:41;100148.84;;;24.02;35.23
79144;BME280;68551;47.484;19.092;2023-06-14T15:11:43;100145.06;;;23.98;34.87
79144;BME280;68551;47.484;19.092;2023-06-14T15:14:46;100139.31;;;23.94;34.92
79144;BME280;68551;47.484;19.092;2023-06-14T15:17:52;100138.13;;;23.87;35.21
79144;BME280;68551;47.484;19.092;2023-06-14T15:20:56;100142.72;;;23.91;35.42
79144;BME280;68551;47.484;19.092;2023-06-14T15:23:59;100138.56;;;23.80;35.53
79144;BME280;68551;47.484;19.092;2023-06-14T15:27:01;100124.78;;;23.75;35.32
79144;BME280;68551;47.484;19.092;2023-06-14T15:30:07;100136.06;;;23.70;35.22
79144;BME280;68551;47.484;19.092;2023-06-14T15:33:13;100137.31;;;23.64;35.73
79144;BME280;68551;47.484;19.092;2023-06-14T15:36:16;100144.66;;;23.60;36.34
79144;BME280;68551;47.484;19.092;2023-06-14T15:39:18;100138.97;;;23.65;37.12
79144;BME280;68551;47.484;19.092;2023-06-14T15:42:23;100131.25;;;23.62;37.14
79144;BME280;68551;47.484;19.092;2023-06-14T15:45:25;100131.53;;;23.52;36.67
79144;BME280;68551;47.484;19.092;2023-06-14T15:48:28;100130.97;;;23.50;36.75
79144;BME280;68551;47.484;19.092;2023-06-14T15:51:30;100117.19;;;23.45;36.66
79144;BME280;68551;47.484;19.092;2023-06-14T15:54:36;100129.66;;;23.47;37.25
79144;BME280;68551;47.484;19.092;2023-06-14T15:57:41;100135.53;;;23.46;36.81
79144;BME280;68551;47.484;19.092;2023-06-14T16:00:48;100132.88;;;23.41;36.84
79144;BME280;68551;47.484;19.092;2023-06-14T16:03:50;100139.13;;;23.46;36.77
79144;BME280;68551;47.484;19.092;2023-06-14T16:06:53;100145.34;;;23.43;36.68
79144;BME280;68551;47.484;19.092;2023-06-14T16:09:55;100127.44;;;23.36;36.86
79144;BME280;68551;47.484;19.092;2023-06-14T16:13:00;100144.13;;;23.36;36.21